RS-0003 weather

Aerodrom "13.Maj"
Zemun Polje, Beograd (city), Serbia

Public forecast

Using degrees Celsius for public forecast. Weather courtesy of forecast.io.

Closest aviation weather report (METAR) to Aerodrom "13.Maj"

Closest report is Belgrade Nikola Tesla Airport, 3.5 nm (6.5 km) S. Retrieved 2019/12/16 09:30 UTC (28 minutes ago):

LYBE 160930Z VRB01KT 5000 BR NSC 09/04 Q1022 NOSIG

Closest aviation forecast (TAF) to Aerodrom "13.Maj"

Closest forecast is Belgrade Nikola Tesla Airport, 3.5 nm (6.5 km) S. Retrieved 2019/12/16 06:21 UTC (4 hours ago):

TAF LYBE 160500Z 1606/1706 15005KT CAVOK TX15/1613Z TN02/1706Z TEMPO 1606/1608 4000 BR BECMG 1700/1702 3000 BR